Flight Track Log - Related Links

Times and Time Zones

All times are in EDT time to prevent confusion due to time zone crossing. See the CJC4863 flight status page for this flight to view local times or setup timezone preferences in your user account.


Time Position Orientation Groundspeed Altitude Reporting Facility
EDT Latitude Longitude Course Direction KTS MPH feet Rate Location/Type
Sat 05:52:44 AM 44.2861 -73.1853 196° South 227 261 8,700  Level Boston Center
Sat 05:56:44 AM 44.0353 -73.2861 197° South 238 274 16,100 1,760 Climbing Boston Center
Sat 05:57:44 AM 43.9747 -73.3114 197° South 238 274 17,500 950 Climbing Boston Center
Sat 05:58:44 AM 43.9142 -73.3364 195° South 244 281 18,000 250 Climbing Boston Center
Sat 05:59:44 AM 43.8389 -73.3642 196° South 270 311 18,000  Level Boston Center
Sat 06:00:44 AM 43.7553 -73.3972 197° South 303 349 18,000  Level Boston Center
Sat 06:01:44 AM 43.6611 -73.4358 196° South 323 372 18,000  Level Boston Center
Sat 06:02:44 AM 43.5692 -73.4717 196° South 328 377 18,000  Level Boston Center
Sat 06:03:44 AM 43.4792 -73.5072 194° South 334 384 18,000  Level Boston Center
Sat 06:04:44 AM 43.3892 -73.5372 196° South 339 390 18,000  Level Boston Center
Sat 06:05:44 AM 43.2992 -73.5728 196° South 339 390 18,000  Level Boston Center
Sat 06:06:44 AM 43.2072 -73.6081 198° South 339 390 18,000  Level Boston Center
Sat 06:07:44 AM 43.1192 -73.6461 198° South 339 390 18,000  Level Boston Center
Sat 06:08:44 AM 43.0314 -73.6842 198° South 339 390 18,000  Level Boston Center
Sat 06:09:44 AM 42.9497 -73.7194 200° South 339 390 18,000 -50 Level Boston Center
Sat 06:10:44 AM 42.8617 -73.7628 196° South 339 390 17,900 -850 Descending Boston Center
Sat 06:11:44 AM 42.7675 -73.8006 197° South 346 398 16,300 -950 Descending Boston Center
Sat 06:12:44 AM 42.6794 -73.8381 197° South 346 398 16,000 -150 Descending Boston Center
Sat 06:13:44 AM 42.5850 -73.8783 197° South 346 398 16,000  Level Boston Center
Sat 06:14:44 AM 42.5033 -73.9131 198° South 341 392 16,000  Level Boston Center
Sat 06:15:44 AM 42.4028 -73.9583 198° South 349 402 16,000  Level Boston Center
Sat 06:16:44 AM 42.3253 -73.9931 198° South 343 395 16,000  Level Boston Center
Sat 06:17:44 AM 42.2244 -74.0381 199° South 343 395 16,000  Level Boston Center
Sat 06:18:44 AM 42.1447 -74.0753 198° South 348 400 16,000  Level Boston Center
Sat 06:19:44 AM 42.0544 -74.1150 197° South 348 400 16,000 -650 Level Boston Center
Sat 06:20:44 AM 41.9581 -74.1542 199° South 348 400 14,700 -1,300 Descending Boston Center
Sat 06:21:44 AM 41.8761 -74.1911 198° South 348 400 13,400 -1,400 Descending Boston Center
Sat 06:22:44 AM 41.7756 -74.2356 198° South 348 400 11,900 -1,400 Descending Boston Center
Sat 06:23:44 AM 41.7042 -74.2669 197° South 330 380 10,600 -1,250 Descending Boston Center
Sat 06:24:44 AM 41.6203 -74.3006 200° South 298 343 9,400 -1,050 Descending Boston Center
Sat 06:25:44 AM 41.5550 -74.3319 198° South 284 327 8,500 -1,000 Descending Boston Center
Sat 06:26:44 AM 41.4731 -74.3683 199° South 284 327 7,400 -588 Descending Boston Center
Sat 06:28:17 AM 41.3667 -74.4167 180° South 265 305 7,000 -235 Descending New York TRACON
Sat 06:29:17 AM 41.3000 -74.4167 180° South 265 305 6,800 -650 Descending New York TRACON
Sat 06:30:17 AM 41.2167 -74.4167 169° South 271 312 5,700 -947 Descending New York TRACON
Sat 06:31:11 AM 41.1500 -74.4000 143° Southeast 269 310 5,000 -368 Descending New York TRACON
Sat 06:32:11 AM 41.1000 -74.3500 143° Southeast 274 315 5,000 -400 Level New York TRACON
Sat 06:33:11 AM 41.0333 -74.2833 135° Southeast 276 318 4,200 -950 Descending New York TRACON
Sat 06:34:11 AM 40.9833 -74.2167 143° Southeast 267 307 3,100 -632 Descending New York TRACON
Sat 06:35:05 AM 40.9333 -74.1667 135° Southeast 258 297 3,000 -56 Descending New York TRACON
Sat 06:35:59 AM 40.8833 -74.1000 166° South 260 299 3,000 -222 Level New York TRACON
Sat 06:36:53 AM 40.8333 -74.0833 194° South 224 258 2,600 -611 Descending New York TRACON
Sat 06:37:47 AM 40.7833 -74.1000 201° Southwest 188 216 1,900 -737 Descending New York TRACON
Sat 06:38:47 AM 40.7500 -74.1167 180° South 162 186 1,200 -650 Descending New York TRACON
Sat 06:39:47 AM 40.7167 -74.1167 180° South 123 142 600 -600 Descending New York TRACON

Login

Don't have an account? Register now (free) for customized features, flight alerts, and more!